createdAt,value
2023-04-04T00:01:12.980Z,85.56
2023-04-04T00:03:47.008Z,86.89
2023-04-04T00:06:16.732Z,88.05
2023-04-04T00:08:46.970Z,88.63
2023-04-04T00:11:16.411Z,88.02
2023-04-04T00:13:45.714Z,88.94
2023-04-04T00:16:15.136Z,89.27
2023-04-04T00:18:44.329Z,87.67
2023-04-04T00:21:13.381Z,87.81
2023-04-04T00:23:42.226Z,87.10
2023-04-04T00:26:15.158Z,87.17
2023-04-04T00:28:45.077Z,86.29
2023-04-04T00:31:14.306Z,87.13
2023-04-04T00:33:46.024Z,87.76
2023-04-04T00:36:15.349Z,87.78
2023-04-04T00:38:44.416Z,88.97
2023-04-04T00:41:16.214Z,89.95
2023-04-04T00:43:46.612Z,90.27
2023-04-04T00:46:18.991Z,90.50
2023-04-04T00:48:49.626Z,91.26
2023-04-04T00:51:19.077Z,91.69
2023-04-04T00:53:49.232Z,91.83
2023-04-04T00:56:21.102Z,92.84
2023-04-04T00:58:50.646Z,93.66
2023-04-04T01:01:19.674Z,94.09
2023-04-04T01:03:49.224Z,96.14
2023-04-04T01:06:18.622Z,95.54
2023-04-04T01:08:48.820Z,95.41
2023-04-04T01:11:19.409Z,94.66
2023-04-04T01:13:49.723Z,93.47
2023-04-04T01:16:20.453Z,93.44
2023-04-04T01:18:53.533Z,92.58
2023-04-04T01:21:25.585Z,92.09
2023-04-04T01:24:01.314Z,92.43
2023-04-04T01:26:40.203Z,93.45
2023-04-04T01:29:10.062Z,93.63
2023-04-04T01:31:43.358Z,93.36
2023-04-04T01:34:22.287Z,92.50
2023-04-04T01:37:00.818Z,93.59
2023-04-04T01:39:34.774Z,92.41
2023-04-04T01:42:07.744Z,93.53
2023-04-04T01:44:37.698Z,93.87
2023-04-04T01:47:08.981Z,93.67
2023-04-04T01:49:38.865Z,93.60
2023-04-04T01:52:09.621Z,93.20
2023-04-04T01:54:39.656Z,93.91
2023-04-04T01:57:13.031Z,94.99
2023-04-04T01:59:42.350Z,94.13
2023-04-04T02:02:12.895Z,94.28
2023-04-04T02:04:42.338Z,94.55
2023-04-04T02:07:11.594Z,94.85
2023-04-04T02:09:40.893Z,95.17
2023-04-04T02:12:09.777Z,95.05
2023-04-04T02:14:41.018Z,95.39
2023-04-04T02:17:10.683Z,94.03
2023-04-04T02:19:39.917Z,94.35
2023-04-04T02:22:08.902Z,94.42
2023-04-04T02:24:38.480Z,94.20
2023-04-04T02:27:07.817Z,94.05
2023-04-04T02:29:37.431Z,93.52
2023-04-04T02:32:08.263Z,94.05
2023-04-04T02:34:39.769Z,94.82
2023-04-04T02:37:09.023Z,95.23
2023-04-04T02:39:38.005Z,96.66
2023-04-04T02:42:07.830Z,96.83
2023-04-04T02:44:37.175Z,97.06
2023-04-04T02:47:09.023Z,96.87
2023-04-04T02:49:38.517Z,96.79
2023-04-04T02:52:08.397Z,97.92
2023-04-04T02:54:42.289Z,99.48
2023-04-04T02:57:13.995Z,98.85
2023-04-04T02:59:45.575Z,98.84
2023-04-04T03:02:16.301Z,99.22
2023-04-04T03:04:45.726Z,99.00
2023-04-04T03:07:14.778Z,98.95
2023-04-04T03:09:45.439Z,97.86
2023-04-04T03:12:14.515Z,97.51
2023-04-04T03:14:44.112Z,96.46
2023-04-04T03:17:14.983Z,95.94
2023-04-04T03:19:48.655Z,95.59
2023-04-04T03:22:17.812Z,95.90
2023-04-04T03:24:49.264Z,95.26
2023-04-04T03:27:18.421Z,95.71
2023-04-04T03:29:47.892Z,95.95
2023-04-04T03:32:19.842Z,95.79
2023-04-04T03:34:50.413Z,95.65
2023-04-04T03:37:23.135Z,95.46
2023-04-04T03:39:54.581Z,95.75
2023-04-04T03:42:23.690Z,96.78
2023-04-04T03:44:57.244Z,97.33
2023-04-04T03:47:32.476Z,97.14
2023-04-04T03:50:03.608Z,96.73
2023-04-04T03:52:42.263Z,96.89
2023-04-04T03:55:13.464Z,96.82
2023-04-04T03:57:42.819Z,96.09
2023-04-04T04:00:14.528Z,95.74
2023-04-04T04:02:43.538Z,96.76
2023-04-04T04:05:14.345Z,96.26
2023-04-04T04:07:45.550Z,95.65
2023-04-04T04:10:15.266Z,95.97
2023-04-04T04:12:44.098Z,95.99
2023-04-04T04:15:13.024Z,96.05
2023-04-04T04:17:44.083Z,95.65
2023-04-04T04:20:15.711Z,95.62
2023-04-04T04:22:53.852Z,95.85
2023-04-04T04:25:23.753Z,95.53
2023-04-04T04:28:06.551Z,95.88
2023-04-04T04:30:38.214Z,95.71
2023-04-04T04:33:13.281Z,96.20
2023-04-04T04:35:55.591Z,96.05
2023-04-04T04:38:26.379Z,95.68
2023-04-04T04:40:55.408Z,95.96
2023-04-04T04:43:29.537Z,95.73
2023-04-04T04:46:01.203Z,95.73
2023-04-04T04:48:33.642Z,95.35
2023-04-04T04:51:04.446Z,95.33
2023-04-04T04:53:41.318Z,95.55
2023-04-04T04:56:10.274Z,95.37
2023-04-04T04:58:42.397Z,95.77
2023-04-04T05:01:13.052Z,95.94
2023-04-04T05:03:42.338Z,96.26
2023-04-04T05:06:17.256Z,95.58
2023-04-04T05:08:46.913Z,95.47
2023-04-04T05:11:42.127Z,95.67
2023-04-04T05:14:12.925Z,95.51
2023-04-04T05:16:49.456Z,95.64
2023-04-04T05:19:19.812Z,95.65
2023-04-04T05:21:55.113Z,95.29
2023-04-04T05:24:33.584Z,95.32
2023-04-04T05:27:03.550Z,95.42
2023-04-04T05:29:39.091Z,95.80
2023-04-04T05:32:11.111Z,96.04
2023-04-04T05:34:41.287Z,96.29
2023-04-04T05:37:17.251Z,96.50
2023-04-04T05:39:50.121Z,96.70
2023-04-04T05:42:20.403Z,96.88
2023-04-04T05:44:53.353Z,97.14
2023-04-04T05:47:22.964Z,97.74
2023-04-04T05:49:52.444Z,98.18
2023-04-04T05:52:23.128Z,98.40
2023-04-04T05:54:52.786Z,99.02
2023-04-04T05:57:29.023Z,99.38
2023-04-04T06:00:00.273Z,99.60
2023-04-04T06:02:33.014Z,100.00
2023-04-04T06:05:06.792Z,99.87
2023-04-04T06:07:40.758Z,99.62
2023-04-04T06:10:11.330Z,99.48
2023-04-04T06:12:40.422Z,98.04
2023-04-04T06:15:12.354Z,97.13
2023-04-04T06:17:43.434Z,97.01
2023-04-04T06:20:13.042Z,96.44
2023-04-04T06:22:44.186Z,95.25
2023-04-04T06:25:14.654Z,94.00
2023-04-04T06:27:44.133Z,92.87
2023-04-04T06:30:17.679Z,91.87
2023-04-04T06:32:50.722Z,88.80
2023-04-04T06:35:22.488Z,88.54
2023-04-04T06:38:00.822Z,88.93
2023-04-04T06:40:31.110Z,88.08
2023-04-04T06:43:02.658Z,88.98
2023-04-04T06:45:37.771Z,88.73
2023-04-04T06:48:08.173Z,88.36
2023-04-04T06:50:37.735Z,88.27
2023-04-04T06:53:12.311Z,87.83
2023-04-04T06:55:41.259Z,84.46
2023-04-04T06:58:10.039Z,83.93
2023-04-04T07:00:38.963Z,81.92
2023-04-04T07:03:08.085Z,80.04
2023-04-04T07:05:39.469Z,77.50
2023-04-04T07:08:08.569Z,78.23
2023-04-04T07:10:41.435Z,71.13
2023-04-04T07:13:11.119Z,74.11
2023-04-04T07:15:39.831Z,74.96
2023-04-04T07:18:09.412Z,72.81
2023-04-04T07:20:38.414Z,69.87
2023-04-04T07:23:07.286Z,70.29
2023-04-04T07:25:35.962Z,70.71
2023-04-04T07:28:12.660Z,70.85
2023-04-04T07:30:44.321Z,69.59
2023-04-04T07:33:13.187Z,69.58
2023-04-04T07:35:42.367Z,67.48
2023-04-04T07:38:11.320Z,68.18
2023-04-04T07:40:41.899Z,69.12
2023-04-04T07:43:12.192Z,69.18
2023-04-04T07:45:41.326Z,68.68
2023-04-04T07:48:10.214Z,68.37
2023-04-04T07:50:39.177Z,67.68
2023-04-04T07:53:08.227Z,67.74
2023-04-04T07:55:37.096Z,68.25
2023-04-04T07:58:07.936Z,68.09
2023-04-04T08:00:38.230Z,66.39
2023-04-04T08:03:07.159Z,65.87
2023-04-04T08:05:35.977Z,62.19
2023-04-04T08:08:04.656Z,59.81
2023-04-04T08:10:33.374Z,59.22
2023-04-04T08:13:02.191Z,56.79
2023-04-04T08:15:30.984Z,56.12
2023-04-04T08:18:03.348Z,56.56
2023-04-04T08:20:32.477Z,55.42
2023-04-04T08:23:01.410Z,55.94
2023-04-04T08:25:30.634Z,56.78
2023-04-04T08:27:59.431Z,54.81
2023-04-04T08:30:28.480Z,54.57
2023-04-04T08:32:57.522Z,56.07
2023-04-04T08:35:27.725Z,55.19
2023-04-04T08:37:57.437Z,51.41
2023-04-04T08:40:30.295Z,50.54
2023-04-04T08:43:00.772Z,49.39
2023-04-04T08:45:33.384Z,45.55
2023-04-04T08:48:04.975Z,46.91
2023-04-04T08:50:39.203Z,45.35
2023-04-04T08:53:09.880Z,46.59
2023-04-04T08:55:39.505Z,43.84
2023-04-04T08:58:08.297Z,45.82
2023-04-04T09:00:40.670Z,45.00
2023-04-04T09:03:14.900Z,43.47
2023-04-04T09:05:46.132Z,42.51
2023-04-04T09:08:15.859Z,42.62
2023-04-04T09:10:45.554Z,44.34
2023-04-04T09:13:16.503Z,44.14
2023-04-04T09:15:49.377Z,44.08
2023-04-04T09:18:19.217Z,44.96
2023-04-04T09:20:52.947Z,44.37
2023-04-04T09:23:23.821Z,44.77
2023-04-04T09:28:30.373Z,43.18
2023-04-04T09:31:01.974Z,43.78
2023-04-04T09:33:32.812Z,45.57
2023-04-04T09:36:04.694Z,42.14
2023-04-04T09:38:33.612Z,43.47
2023-04-04T09:41:02.502Z,43.86
2023-04-04T09:43:33.767Z,43.57
2023-04-04T09:46:05.526Z,42.38
2023-04-04T09:48:37.057Z,42.42
2023-04-04T09:51:08.486Z,39.14
2023-04-04T09:53:38.168Z,40.33
2023-04-04T09:56:08.133Z,39.66
2023-04-04T09:58:39.124Z,39.88
2023-04-04T10:01:15.419Z,38.28
2023-04-04T10:03:44.442Z,40.24
2023-04-04T10:06:15.413Z,39.02
2023-04-04T10:08:45.316Z,40.39
2023-04-04T10:11:14.123Z,39.49
2023-04-04T10:13:44.721Z,40.01
2023-04-04T10:16:15.448Z,38.53
2023-04-04T10:18:44.734Z,37.62
2023-04-04T10:21:16.134Z,37.98
2023-04-04T10:23:47.694Z,40.33
2023-04-04T10:26:18.735Z,38.26
2023-04-04T10:28:47.812Z,38.03
2023-04-04T10:31:21.710Z,40.74
2023-04-04T10:34:01.864Z,42.20
2023-04-04T10:36:39.624Z,40.85
2023-04-04T10:39:15.276Z,41.42
2023-04-04T10:41:47.900Z,42.40
2023-04-04T10:44:25.421Z,38.02
2023-04-04T10:46:55.589Z,40.46
2023-04-04T10:49:29.785Z,39.79
2023-04-04T10:51:59.939Z,38.25
2023-04-04T10:54:30.371Z,37.23
2023-04-04T10:57:01.594Z,36.32
2023-04-04T10:59:30.577Z,38.00
2023-04-04T11:02:00.926Z,36.33
2023-04-04T11:04:34.290Z,37.40
2023-04-04T11:07:14.703Z,36.54
2023-04-04T11:09:51.263Z,36.88
2023-04-04T11:12:28.406Z,37.15
2023-04-04T11:15:11.395Z,37.28
2023-04-04T11:17:53.087Z,37.29
2023-04-04T11:20:23.930Z,38.64
2023-04-04T11:23:04.685Z,40.47
2023-04-04T11:25:35.209Z,35.51
2023-04-04T11:28:14.865Z,36.01
2023-04-04T11:30:48.904Z,37.19
2023-04-04T11:33:31.835Z,37.92
2023-04-04T11:36:08.568Z,38.09
2023-04-04T11:38:41.408Z,35.52
2023-04-04T11:41:14.771Z,36.51
2023-04-04T11:43:46.739Z,38.20
2023-04-04T11:46:19.671Z,37.68
2023-04-04T11:48:49.440Z,34.99
2023-04-04T11:51:19.970Z,36.66
2023-04-04T11:53:50.070Z,36.83
2023-04-04T11:56:20.911Z,36.57
2023-04-04T11:59:01.589Z,38.00
2023-04-04T12:01:38.748Z,36.93
2023-04-04T12:04:08.041Z,38.30
2023-04-04T12:06:37.338Z,38.04
2023-04-04T12:09:08.777Z,38.77
2023-04-04T12:11:38.500Z,38.04
2023-04-04T12:14:07.773Z,37.40
2023-04-04T12:16:37.215Z,36.61
2023-04-04T12:19:06.130Z,35.76
2023-04-04T12:21:34.813Z,36.20
2023-04-04T12:24:03.818Z,36.96
2023-04-04T12:26:34.021Z,34.70
2023-04-04T12:29:02.863Z,33.62
2023-04-04T12:31:34.697Z,35.31
2023-04-04T12:34:03.632Z,35.53
2023-04-04T12:36:38.242Z,36.70
2023-04-04T12:39:08.964Z,35.76
2023-04-04T12:41:49.278Z,37.46
2023-04-04T12:44:29.421Z,38.48
2023-04-04T12:47:00.173Z,37.39
2023-04-04T12:49:31.090Z,37.40
2023-04-04T12:52:03.909Z,34.25
2023-04-04T12:54:35.131Z,34.55
2023-04-04T12:57:07.412Z,37.13
2023-04-04T12:59:40.050Z,36.13
2023-04-04T13:02:12.501Z,34.14
2023-04-04T13:04:43.383Z,35.16
2023-04-04T13:07:22.942Z,34.99
2023-04-04T13:09:56.559Z,36.81
2023-04-04T13:12:28.442Z,36.93
2023-04-04T13:14:59.052Z,37.17
2023-04-04T13:17:40.101Z,37.98
2023-04-04T13:20:10.143Z,36.75
2023-04-04T13:22:39.501Z,35.99
2023-04-04T13:25:10.099Z,35.40
2023-04-04T13:27:42.795Z,37.62
2023-04-04T13:30:14.467Z,39.81
2023-04-04T13:32:43.211Z,39.55
2023-04-04T13:35:12.037Z,37.77
2023-04-04T13:37:43.205Z,38.89
2023-04-04T13:40:14.287Z,39.36
2023-04-04T13:42:44.478Z,36.66
2023-04-04T13:45:13.610Z,37.88
2023-04-04T13:47:42.718Z,38.50
2023-04-04T13:50:12.014Z,39.47
2023-04-04T13:52:40.839Z,39.01
2023-04-04T13:55:10.439Z,39.92
2023-04-04T13:57:39.287Z,40.08
2023-04-04T14:00:11.115Z,38.05
2023-04-04T14:02:42.421Z,39.13
2023-04-04T14:05:11.987Z,36.07
2023-04-04T14:07:40.810Z,37.31
2023-04-04T14:10:11.676Z,38.39
2023-04-04T14:12:41.372Z,38.80
2023-04-04T14:15:13.244Z,39.39
2023-04-04T14:17:42.134Z,39.00
2023-04-04T14:20:11.855Z,39.38
2023-04-04T14:22:43.186Z,38.98
2023-04-04T14:25:12.055Z,39.37
2023-04-04T14:27:40.851Z,39.24
2023-04-04T14:30:12.142Z,39.76
2023-04-04T14:32:41.009Z,39.13
2023-04-04T14:35:10.367Z,40.07
2023-04-04T14:37:39.177Z,40.49
2023-04-04T14:40:08.896Z,40.52
2023-04-04T14:42:39.408Z,40.11
2023-04-04T14:45:10.152Z,39.56
2023-04-04T14:47:43.368Z,39.69
2023-04-04T14:50:12.329Z,39.10
2023-04-04T14:52:41.299Z,40.80
2023-04-04T14:55:11.401Z,41.48
2023-04-04T14:57:57.095Z,41.23
2023-04-04T15:00:29.416Z,39.96
2023-04-04T15:03:01.068Z,38.49
2023-04-04T15:05:30.136Z,38.25
2023-04-04T15:07:58.807Z,39.06
2023-04-04T15:10:27.637Z,39.27
2023-04-04T15:12:56.437Z,38.61
2023-04-04T15:15:29.061Z,40.09
2023-04-04T15:17:59.342Z,40.38
2023-04-04T15:20:28.341Z,38.94
2023-04-04T15:22:57.145Z,39.77
2023-04-04T15:25:25.909Z,41.08
2023-04-04T15:27:56.855Z,40.03
2023-04-04T15:30:25.632Z,40.64
2023-04-04T15:32:54.633Z,41.13
2023-04-04T15:35:25.110Z,41.63
2023-04-04T15:37:53.846Z,41.99
2023-04-04T15:40:22.957Z,42.53
2023-04-04T15:42:51.907Z,42.51
2023-04-04T15:45:20.565Z,42.06
2023-04-04T15:47:49.393Z,42.18
2023-04-04T15:50:18.251Z,42.49
2023-04-04T15:52:48.452Z,42.32
2023-04-04T15:55:20.005Z,42.53
2023-04-04T15:57:50.437Z,41.61
2023-04-04T16:00:19.581Z,41.49
2023-04-04T16:02:48.448Z,42.49
2023-04-04T16:05:17.315Z,43.46
2023-04-04T16:07:46.273Z,43.53
2023-04-04T16:10:16.495Z,42.87
2023-04-04T16:12:47.591Z,43.30
2023-04-04T16:15:16.499Z,44.52
2023-04-04T16:17:45.292Z,44.41
2023-04-04T16:20:14.212Z,44.43
2023-04-04T16:22:42.931Z,44.62
2023-04-04T16:25:11.850Z,44.69
2023-04-04T16:27:44.255Z,44.14
2023-04-04T16:30:16.229Z,43.23
2023-04-04T16:32:46.656Z,42.82
2023-04-04T16:35:15.609Z,44.03
2023-04-04T16:37:44.302Z,44.50
2023-04-04T16:40:14.810Z,44.66
2023-04-04T16:42:45.928Z,44.93
2023-04-04T16:45:14.790Z,44.16
2023-04-04T16:47:43.595Z,44.52
2023-04-04T16:50:14.742Z,44.84
2023-04-04T16:52:43.450Z,44.20
2023-04-04T16:55:12.296Z,43.45
2023-04-04T16:57:41.206Z,43.71
2023-04-04T17:00:12.972Z,44.71
2023-04-04T17:02:45.624Z,45.25
2023-04-04T17:05:15.067Z,43.85
2023-04-04T17:07:46.478Z,43.84
2023-04-04T17:10:15.667Z,44.17
2023-04-04T17:12:44.654Z,44.13
2023-04-04T17:15:16.622Z,44.04
2023-04-04T17:17:47.021Z,44.39
2023-04-04T17:20:21.018Z,42.76
2023-04-04T17:22:53.952Z,42.63
2023-04-04T17:25:28.948Z,42.97
2023-04-04T17:28:00.245Z,43.37
2023-04-04T17:30:31.216Z,44.62
2023-04-04T17:33:00.120Z,44.49
2023-04-04T17:35:31.329Z,45.24
2023-04-04T17:38:00.116Z,45.37
2023-04-04T17:40:28.863Z,45.34
2023-04-04T17:42:57.671Z,45.81
2023-04-04T17:45:27.636Z,46.96
2023-04-04T17:47:58.279Z,47.60
2023-04-04T17:50:29.793Z,47.83
2023-04-04T17:53:02.030Z,48.37
2023-04-04T17:55:32.100Z,49.02
2023-04-04T17:58:00.877Z,49.95
2023-04-04T18:00:29.598Z,49.72
2023-04-04T18:03:02.052Z,49.83
2023-04-04T18:05:31.333Z,49.66
2023-04-04T18:08:04.875Z,49.52
2023-04-04T18:10:33.920Z,50.77
2023-04-04T18:13:02.665Z,51.85
2023-04-04T18:15:36.417Z,52.40
2023-04-04T18:18:12.464Z,52.18
2023-04-04T18:20:41.332Z,52.15
2023-04-04T18:23:12.440Z,51.91
2023-04-04T18:25:43.536Z,51.75
2023-04-04T18:28:12.896Z,52.34
2023-04-04T18:30:42.151Z,52.30
2023-04-04T18:33:13.437Z,52.68
2023-04-04T18:35:45.359Z,52.48
2023-04-04T18:38:14.274Z,52.47
2023-04-04T18:40:45.717Z,52.94
2023-04-04T18:43:14.760Z,51.92
2023-04-04T18:45:43.479Z,52.12
2023-04-04T18:48:13.773Z,51.33
2023-04-04T18:50:43.752Z,50.32
2023-04-04T18:53:12.647Z,50.63
2023-04-04T18:55:41.469Z,50.25
2023-04-04T18:58:10.394Z,50.42
2023-04-04T19:00:39.524Z,50.38
2023-04-04T19:03:13.550Z,49.34
2023-04-04T19:05:47.717Z,49.96
2023-04-04T19:08:17.752Z,50.27
2023-04-04T19:10:47.817Z,51.08
2023-04-04T19:13:17.294Z,51.50
2023-04-04T19:15:46.933Z,51.63
2023-04-04T19:18:19.339Z,52.53
2023-04-04T19:20:48.110Z,53.08
2023-04-04T19:23:17.139Z,53.50
2023-04-04T19:25:46.048Z,53.70
2023-04-04T19:28:15.034Z,54.37
2023-04-04T19:30:45.530Z,54.81
2023-04-04T19:33:18.144Z,55.66
2023-04-04T19:35:58.816Z,55.93
2023-04-04T19:38:29.657Z,56.26
2023-04-04T19:40:59.938Z,56.57
2023-04-04T19:43:30.027Z,56.80
2023-04-04T19:46:00.412Z,57.17
2023-04-04T19:48:44.480Z,58.08
2023-04-04T19:51:42.635Z,58.30
2023-04-04T19:54:17.761Z,58.16
2023-04-04T19:56:50.866Z,58.92
2023-04-04T20:00:06.103Z,59.69
2023-04-04T20:02:57.071Z,59.92
2023-04-04T20:05:56.509Z,61.02
2023-04-04T20:08:31.775Z,61.59
2023-04-04T20:11:00.686Z,62.30
2023-04-04T20:13:32.924Z,63.19
2023-04-04T20:16:07.010Z,64.52
2023-04-04T20:18:37.336Z,64.63
2023-04-04T20:21:12.018Z,65.44
2023-04-04T20:23:48.031Z,66.03
2023-04-04T20:26:41.860Z,67.20
2023-04-04T20:29:11.718Z,68.74
2023-04-04T20:31:44.041Z,67.81
2023-04-04T20:34:34.004Z,69.35
2023-04-04T20:37:05.098Z,68.86
2023-04-04T20:39:56.115Z,70.37
2023-04-04T20:42:50.706Z,71.02
2023-04-04T20:45:44.927Z,71.79
2023-04-04T20:48:41.965Z,71.86
2023-04-04T20:51:25.932Z,71.51
2023-04-04T20:53:58.869Z,71.53
2023-04-04T20:56:57.259Z,72.42
2023-04-04T20:59:44.843Z,72.39
2023-04-04T21:02:20.106Z,72.22
2023-04-04T21:04:51.821Z,72.97
2023-04-04T21:07:40.589Z,74.04
2023-04-04T21:10:24.837Z,74.51
2023-04-04T21:12:56.362Z,74.37
2023-04-04T21:15:29.654Z,75.27
2023-04-04T21:18:02.517Z,75.51
2023-04-04T21:21:19.778Z,75.90
2023-04-04T21:23:52.628Z,76.03
2023-04-04T21:26:33.109Z,76.28
2023-04-04T21:29:06.441Z,76.66
2023-04-04T21:31:36.756Z,78.29
2023-04-04T21:34:11.660Z,77.37
2023-04-04T21:36:41.659Z,76.96
2023-04-04T21:39:14.658Z,77.42
2023-04-04T21:41:46.173Z,78.40
2023-04-04T21:44:16.532Z,78.41
2023-04-04T21:46:47.981Z,78.66
2023-04-04T21:49:17.604Z,79.79
2023-04-04T21:51:46.816Z,80.28
2023-04-04T21:54:16.300Z,80.48
2023-04-04T21:56:45.620Z,80.13
2023-04-04T21:59:14.654Z,80.65
2023-04-04T22:01:45.376Z,80.93
2023-04-04T22:04:14.927Z,81.08
2023-04-04T22:06:44.069Z,81.39
2023-04-04T22:09:13.156Z,81.78
2023-04-04T22:11:45.654Z,82.07
2023-04-04T22:14:17.796Z,82.02
2023-04-04T22:16:48.999Z,82.35
2023-04-04T22:19:18.331Z,82.62
2023-04-04T22:21:49.986Z,82.91
2023-04-04T22:24:19.073Z,83.49
2023-04-04T22:26:50.701Z,83.68
2023-04-04T22:29:19.922Z,83.61
2023-04-04T22:31:50.835Z,84.32
2023-04-04T22:34:20.230Z,84.07
2023-04-04T22:36:49.484Z,83.74
2023-04-04T22:39:20.880Z,83.73
2023-04-04T22:41:52.495Z,83.82
2023-04-04T22:44:21.791Z,83.83
2023-04-04T22:46:53.022Z,83.65
2023-04-04T22:49:22.496Z,83.58
2023-04-04T22:51:55.568Z,83.56
2023-04-04T22:54:24.518Z,83.59
2023-04-04T22:56:53.666Z,83.70
2023-04-04T22:59:22.906Z,83.71
2023-04-04T23:01:53.767Z,84.13
2023-04-04T23:04:23.086Z,84.14
2023-04-04T23:06:53.427Z,84.41
2023-04-04T23:09:22.725Z,84.50
2023-04-04T23:11:51.841Z,85.08
2023-04-04T23:14:22.963Z,84.80
2023-04-04T23:16:56.997Z,84.69
2023-04-04T23:19:26.440Z,85.00
2023-04-04T23:21:55.660Z,85.36
2023-04-04T23:24:24.805Z,85.65
2023-04-04T23:26:54.183Z,85.70
2023-04-04T23:29:23.814Z,85.86
2023-04-04T23:31:57.100Z,86.02
2023-04-04T23:34:26.088Z,86.20
2023-04-04T23:36:55.943Z,86.23
2023-04-04T23:39:25.052Z,86.28
2023-04-04T23:41:54.077Z,86.30
2023-04-04T23:44:23.577Z,86.30
2023-04-04T23:46:53.000Z,86.68
2023-04-04T23:49:24.311Z,86.36
2023-04-04T23:51:53.348Z,86.85
2023-04-04T23:54:23.460Z,87.08
2023-04-04T23:56:52.740Z,87.16
2023-04-04T23:59:22.016Z,87.30
